createdAt,value
2023-01-05T00:01:39.529Z,101373.97
2023-01-05T00:04:08.609Z,101370.69
2023-01-05T00:06:37.536Z,101369.88
2023-01-05T00:09:06.068Z,101364.22
2023-01-05T00:11:53.147Z,101358.19
2023-01-05T00:14:41.339Z,101360.56
2023-01-05T00:17:30.247Z,101359.31
2023-01-05T00:20:18.173Z,101360.84
2023-01-05T00:22:48.805Z,101361.38
2023-01-05T00:25:19.234Z,101358.19
2023-01-05T00:27:51.775Z,101351.81
2023-01-05T00:30:21.603Z,101346.22
2023-01-05T00:32:49.791Z,101350.19
2023-01-05T00:35:18.530Z,101350.72
2023-01-05T00:37:46.884Z,101355.53
2023-01-05T00:40:17.406Z,101348.13
2023-01-05T00:42:45.874Z,101345.13
2023-01-05T00:45:17.019Z,101344.34
2023-01-05T00:47:45.723Z,101340.31
2023-01-05T00:50:15.995Z,101333.19
2023-01-05T00:52:44.565Z,101331.38
2023-01-05T00:55:12.768Z,101341.78
2023-01-05T00:57:42.164Z,101335.06
2023-01-05T01:00:17.372Z,101332.66
2023-01-05T01:02:45.833Z,101337.22
2023-01-05T01:05:14.461Z,101332.66
2023-01-05T01:07:42.940Z,101330.53
2023-01-05T01:10:12.613Z,101321.44
2023-01-05T01:15:09.555Z,101317.25
2023-01-05T01:17:39.210Z,101308.50
2023-01-05T01:20:09.010Z,101302.63
2023-01-05T01:22:37.115Z,101300.22
2023-01-05T01:25:05.753Z,101297.56
2023-01-05T01:27:34.597Z,101293.34
2023-01-05T01:30:02.993Z,101288.28
2023-01-05T01:32:31.141Z,101284.53
2023-01-05T01:35:00.644Z,101275.03
2023-01-05T01:37:28.766Z,101280.63
2023-01-05T01:39:57.955Z,101271.25
2023-01-05T01:42:26.078Z,101266.56
2023-01-05T01:44:57.643Z,101268.75
2023-01-05T01:47:35.070Z,101260.50
2023-01-05T01:50:09.774Z,101258.63
2023-01-05T01:52:39.289Z,101257.84
2023-01-05T01:55:09.709Z,101245.00
2023-01-05T01:57:39.917Z,101248.75
2023-01-05T02:00:10.822Z,101246.06
2023-01-05T02:02:39.139Z,101233.81
2023-01-05T02:05:14.116Z,101236.97
2023-01-05T02:07:46.897Z,101235.63
2023-01-05T02:10:17.950Z,101231.66
2023-01-05T02:13:04.949Z,101226.59
2023-01-05T02:15:44.769Z,101212.78
2023-01-05T02:18:41.247Z,101212.22
2023-01-05T02:21:23.765Z,101210.88
2023-01-05T02:24:21.712Z,101192.22
2023-01-05T02:27:37.455Z,101196.03
2023-01-05T02:30:33.649Z,101192.28
2023-01-05T02:33:12.354Z,101190.97
2023-01-05T02:35:48.012Z,101182.94
2023-01-05T02:38:22.751Z,101177.91
2023-01-05T02:40:55.317Z,101176.34
2023-01-05T02:43:23.633Z,101171.28
2023-01-05T02:45:51.866Z,101168.88
2023-01-05T02:48:21.546Z,101171.28
2023-01-05T02:50:57.629Z,101167.25
2023-01-05T02:53:29.604Z,101160.28
2023-01-05T02:56:02.178Z,101157.59
2023-01-05T02:58:37.448Z,101154.34
2023-01-05T03:01:11.046Z,101147.16
2023-01-05T03:03:44.467Z,101148.19
2023-01-05T03:06:16.477Z,101140.47
2023-01-05T03:08:51.396Z,101154.34
2023-01-05T03:11:37.291Z,101140.47
2023-01-05T03:14:12.392Z,101139.16
2023-01-05T03:16:40.960Z,101133.84
2023-01-05T03:19:31.228Z,101121.81
2023-01-05T03:22:19.081Z,101122.84
2023-01-05T03:25:05.156Z,101130.53
2023-01-05T03:27:51.529Z,101120.88
2023-01-05T03:30:38.608Z,101120.09
2023-01-05T03:33:31.072Z,101117.38
2023-01-05T03:36:02.437Z,101104.06
2023-01-05T03:38:35.051Z,101107.81
2023-01-05T03:41:06.243Z,101100.34
2023-01-05T03:43:36.103Z,101095.25
2023-01-05T03:46:13.339Z,101091.22
2023-01-05T03:48:41.569Z,101088.03
2023-01-05T03:51:11.116Z,101101.38
2023-01-05T03:53:39.213Z,101098.69
2023-01-05T03:56:08.202Z,101097.13
2023-01-05T03:58:36.279Z,101088.56
2023-01-05T04:01:04.715Z,101094.97
2023-01-05T04:03:33.098Z,101088.56
2023-01-05T04:06:01.855Z,101087.44
2023-01-05T04:08:31.435Z,101080.03
2023-01-05T04:11:10.933Z,101081.06
2023-01-05T04:13:39.070Z,101087.69
2023-01-05T04:16:10.131Z,101083.94
2023-01-05T04:18:38.260Z,101089.25
2023-01-05T04:21:07.503Z,101090.88
2023-01-05T04:23:37.434Z,101089.03
2023-01-05T04:26:06.147Z,101082.13
2023-01-05T04:28:34.346Z,101083.72
2023-01-05T04:31:02.562Z,101085.06
2023-01-05T04:33:31.011Z,101092.50
2023-01-05T04:35:59.330Z,101088.28
2023-01-05T04:38:27.511Z,101086.41
2023-01-05T04:40:57.101Z,101082.78
2023-01-05T04:43:25.300Z,101084.91
2023-01-05T04:45:53.511Z,101083.63
2023-01-05T04:48:22.992Z,101087.06
2023-01-05T04:50:54.518Z,101082.91
2023-01-05T04:53:23.582Z,101083.72
2023-01-05T04:55:52.312Z,101076.56
2023-01-05T04:58:22.280Z,101075.56
2023-01-05T05:00:51.063Z,101058.78
2023-01-05T05:03:19.442Z,101063.31
2023-01-05T05:05:48.760Z,101060.41
2023-01-05T05:08:17.496Z,101054.53
2023-01-05T05:10:45.729Z,101059.59
2023-01-05T05:13:14.068Z,101056.13
2023-01-05T05:15:45.885Z,101046.81
2023-01-05T05:18:14.123Z,101035.38
2023-01-05T05:20:45.119Z,101035.91
2023-01-05T05:23:13.449Z,101031.09
2023-01-05T05:25:41.756Z,101029.22
2023-01-05T05:28:09.845Z,101034.56
2023-01-05T05:30:39.640Z,101036.41
2023-01-05T05:33:09.320Z,101031.38
2023-01-05T05:35:37.414Z,101026.31
2023-01-05T05:38:05.735Z,101026.31
2023-01-05T05:40:33.911Z,101024.16
2023-01-05T05:43:02.179Z,101025.25
2023-01-05T05:45:31.409Z,101026.84
2023-01-05T05:48:01.302Z,101026.81
2023-01-05T05:50:30.822Z,101019.91
2023-01-05T05:52:58.892Z,101019.66
2023-01-05T05:55:27.146Z,101015.16
2023-01-05T05:57:55.280Z,101006.84
2023-01-05T06:00:23.568Z,101005.25
2023-01-05T06:02:53.876Z,100997.25
2023-01-05T06:05:22.640Z,100996.22
2023-01-05T06:07:52.189Z,101001.53
2023-01-05T06:10:20.520Z,100995.16
2023-01-05T06:12:48.793Z,100993.03
2023-01-05T06:15:17.041Z,100988.25
2023-01-05T06:17:46.825Z,100981.84
2023-01-05T06:20:16.552Z,100978.91
2023-01-05T06:22:45.988Z,100973.84
2023-01-05T06:25:15.938Z,100967.44
2023-01-05T06:27:44.143Z,100968.78
2023-01-05T06:30:13.226Z,100967.19
2023-01-05T06:32:42.415Z,100960.50
2023-01-05T06:35:11.056Z,100963.72
2023-01-05T06:37:39.246Z,100967.91
2023-01-05T06:40:09.843Z,100972.19
2023-01-05T06:42:39.372Z,100969.50
2023-01-05T06:45:09.375Z,100968.94
2023-01-05T06:47:37.543Z,100970.50
2023-01-05T06:50:06.209Z,100970.00
2023-01-05T06:52:39.973Z,100964.94
2023-01-05T06:55:09.545Z,100969.50
2023-01-05T06:57:39.342Z,100967.91
2023-01-05T07:00:10.543Z,100969.50
2023-01-05T07:02:38.953Z,100965.50
2023-01-05T07:05:08.169Z,100967.09
2023-01-05T07:07:36.985Z,100964.16
2023-01-05T07:10:05.981Z,100963.09
2023-01-05T07:12:34.358Z,100961.47
2023-01-05T07:15:04.655Z,100955.59
2023-01-05T07:17:33.024Z,100954.47
2023-01-05T07:20:01.195Z,100956.34
2023-01-05T07:22:31.025Z,100950.22
2023-01-05T07:25:01.227Z,100951.81
2023-01-05T07:27:29.465Z,100945.38
2023-01-05T07:29:57.592Z,100934.44
2023-01-05T07:32:27.156Z,100938.19
2023-01-05T07:34:56.227Z,100931.00
2023-01-05T07:37:25.604Z,100934.16
2023-01-05T07:39:53.949Z,100935.75
2023-01-05T07:42:23.594Z,100933.03
2023-01-05T07:44:52.400Z,100924.38
2023-01-05T07:47:20.583Z,100930.50
2023-01-05T07:49:50.154Z,100922.66
2023-01-05T07:52:18.683Z,100923.94
2023-01-05T07:54:46.900Z,100926.06
2023-01-05T07:57:15.047Z,100921.53
2023-01-05T07:59:43.176Z,100915.00
2023-01-05T08:02:12.053Z,100920.56
2023-01-05T08:04:40.392Z,100913.78
2023-01-05T08:07:12.893Z,100909.38
2023-01-05T08:09:58.744Z,100896.69
2023-01-05T08:12:27.107Z,100897.41
2023-01-05T08:14:55.378Z,100905.56
2023-01-05T08:17:24.024Z,100901.97
2023-01-05T08:19:52.283Z,100893.97
2023-01-05T08:22:21.859Z,100889.56
2023-01-05T08:24:52.378Z,100880.13
2023-01-05T08:27:20.615Z,100877.13
2023-01-05T08:29:48.821Z,100867.78
2023-01-05T08:32:16.977Z,100869.38
2023-01-05T08:34:49.110Z,100858.69
2023-01-05T08:37:21.654Z,100854.28
2023-01-05T08:39:49.809Z,100855.22
2023-01-05T08:42:18.150Z,100839.38
2023-01-05T08:44:47.387Z,100835.47
2023-01-05T08:47:18.185Z,100840.53
2023-01-05T08:49:47.248Z,100836.38
2023-01-05T08:52:15.487Z,100826.97
2023-01-05T08:54:45.197Z,100823.00
2023-01-05T08:57:13.303Z,100825.38
2023-01-05T08:59:41.708Z,100812.13
2023-01-05T09:02:12.967Z,100809.59
2023-01-05T09:04:41.493Z,100803.53
2023-01-05T09:07:09.783Z,100799.13
2023-01-05T09:09:37.942Z,100791.00
2023-01-05T09:12:08.652Z,100787.41
2023-01-05T09:14:37.114Z,100780.16
2023-01-05T09:17:07.513Z,100775.88
2023-01-05T09:19:36.731Z,100760.34
2023-01-05T09:22:05.334Z,100776.25
2023-01-05T09:24:33.543Z,100762.50
2023-01-05T09:27:01.727Z,100746.28
2023-01-05T09:29:31.223Z,100750.97
2023-01-05T09:31:59.342Z,100738.88
2023-01-05T09:34:27.561Z,100736.81
2023-01-05T09:36:56.137Z,100738.13
2023-01-05T09:39:24.243Z,100727.50
2023-01-05T09:41:55.615Z,100725.03
2023-01-05T09:44:32.207Z,100722.06
2023-01-05T09:47:04.460Z,100715.41
2023-01-05T09:49:34.970Z,100693.47
2023-01-05T09:52:09.208Z,100688.56
2023-01-05T09:54:38.866Z,100678.44
2023-01-05T09:57:11.064Z,100672.88
2023-01-05T09:59:44.116Z,100664.81
2023-01-05T10:02:21.599Z,100670.28
2023-01-05T10:04:51.031Z,100660.44
2023-01-05T10:07:28.276Z,100650.78
2023-01-05T10:09:59.581Z,100644.13
2023-01-05T10:12:50.342Z,100633.09
2023-01-05T10:15:22.404Z,100622.59
2023-01-05T10:17:50.646Z,100618.19
2023-01-05T10:20:25.857Z,100611.50
2023-01-05T10:23:04.660Z,100604.16
2023-01-05T10:25:40.698Z,100603.03
2023-01-05T10:28:25.204Z,100592.19
2023-01-05T10:31:00.037Z,100580.25
2023-01-05T10:33:53.622Z,100582.38
2023-01-05T10:39:31.314Z,100577.72
2023-01-05T10:42:05.415Z,100579.56
2023-01-05T10:44:53.152Z,100567.84
2023-01-05T10:47:24.230Z,100572.06
2023-01-05T10:49:52.890Z,100550.34
2023-01-05T10:52:23.987Z,100557.78
2023-01-05T10:54:56.918Z,100562.00
2023-01-05T10:57:39.329Z,100557.94
2023-01-05T11:00:12.276Z,100558.34
2023-01-05T11:02:44.503Z,100551.03
2023-01-05T11:05:26.769Z,100540.28
2023-01-05T11:07:57.572Z,100537.97
2023-01-05T11:10:30.611Z,100536.81
2023-01-05T11:13:05.065Z,100521.22
2023-01-05T11:15:41.527Z,100515.75
2023-01-05T11:18:26.624Z,100501.56
2023-01-05T11:21:18.539Z,100490.81
2023-01-05T11:23:48.960Z,100491.25
2023-01-05T11:26:26.822Z,100484.31
2023-01-05T11:29:14.685Z,100482.38
2023-01-05T11:31:48.093Z,100484.94
2023-01-05T11:34:31.561Z,100470.22
2023-01-05T11:37:07.570Z,100473.44
2023-01-05T11:39:40.240Z,100472.50
2023-01-05T11:42:25.413Z,100467.47
2023-01-05T11:44:56.743Z,100464.00
2023-01-05T11:47:30.566Z,100458.03
2023-01-05T11:50:08.732Z,100460.56
2023-01-05T11:52:39.867Z,100451.59
2023-01-05T11:55:30.475Z,100450.78
2023-01-05T11:58:23.054Z,100442.28
2023-01-05T12:01:07.506Z,100440.22
2023-01-05T12:04:09.930Z,100438.81
2023-01-05T12:06:56.378Z,100437.03
2023-01-05T12:09:34.768Z,100429.47
2023-01-05T12:12:28.132Z,100437.19
2023-01-05T12:15:12.565Z,100432.41
2023-01-05T12:17:50.541Z,100431.16
2023-01-05T12:20:43.644Z,100439.69
2023-01-05T12:23:33.657Z,100441.59
2023-01-05T12:26:11.109Z,100445.03
2023-01-05T12:35:53.201Z,100435.91
2023-01-05T12:38:38.581Z,100427.69
2023-01-05T12:41:38.915Z,100424.53
2023-01-05T12:44:36.726Z,100409.41
2023-01-05T12:47:20.254Z,100411.59
2023-01-05T12:49:52.633Z,100409.88
2023-01-05T12:52:29.143Z,100409.06
2023-01-05T12:55:03.624Z,100406.69
2023-01-05T12:57:37.833Z,100403.69
2023-01-05T13:00:12.040Z,100403.53
2023-01-05T13:02:42.768Z,100400.81
2023-01-05T13:05:18.550Z,100408.25
2023-01-05T13:07:51.745Z,100400.34
2023-01-05T13:10:27.283Z,100407.13
2023-01-05T13:12:59.540Z,100410.16
2023-01-05T13:15:38.848Z,100413.75
2023-01-05T13:18:12.588Z,100412.78
2023-01-05T13:20:45.411Z,100415.97
2023-01-05T13:23:19.495Z,100422.00
2023-01-05T13:25:55.713Z,100418.81
2023-01-05T13:28:27.509Z,100413.31
2023-01-05T13:31:16.167Z,100394.50
2023-01-05T13:34:08.991Z,100387.41
2023-01-05T13:36:59.070Z,100367.50
2023-01-05T13:39:44.112Z,100361.19
2023-01-05T13:42:38.355Z,100362.41
2023-01-05T13:45:51.313Z,100368.91
2023-01-05T13:49:02.887Z,100369.53
2023-01-05T13:51:54.927Z,100349.75
2023-01-05T13:55:00.090Z,100340.91
2023-01-05T13:57:39.321Z,100343.91
2023-01-05T14:00:12.375Z,100345.63
2023-01-05T14:02:43.230Z,100339.16
2023-01-05T14:05:25.147Z,100345.44
2023-01-05T14:07:54.976Z,100331.38
2023-01-05T14:10:26.255Z,100324.59
2023-01-05T14:12:56.617Z,100314.94
2023-01-05T14:15:39.590Z,100325.31
2023-01-05T14:18:09.354Z,100332.00
2023-01-05T14:20:44.809Z,100342.63
2023-01-05T14:23:51.174Z,100325.72
2023-01-05T14:26:39.414Z,100331.50
2023-01-05T14:29:09.741Z,100334.38
2023-01-05T14:31:39.516Z,100338.44
2023-01-05T14:34:15.512Z,100350.22
2023-01-05T14:36:46.385Z,100350.44
2023-01-05T14:39:27.795Z,100342.03
2023-01-05T14:42:01.865Z,100339.78
2023-01-05T14:44:36.140Z,100349.34
2023-01-05T14:47:05.640Z,100341.03
2023-01-05T14:49:38.235Z,100341.03
2023-01-05T14:52:08.529Z,100331.34
2023-01-05T14:55:05.730Z,100327.78
2023-01-05T14:57:50.341Z,100332.56
2023-01-05T15:00:30.861Z,100330.50
2023-01-05T15:03:10.003Z,100331.28
2023-01-05T15:05:53.554Z,100327.94
2023-01-05T15:08:34.529Z,100319.50
2023-01-05T15:11:28.131Z,100335.28
2023-01-05T15:14:35.240Z,100335.75
2023-01-05T15:17:45.326Z,100342.41
2023-01-05T15:20:54.321Z,100326.22
2023-01-05T15:24:10.929Z,100319.81
2023-01-05T15:26:54.247Z,100327.25
2023-01-05T15:29:51.434Z,100316.13
2023-01-05T15:32:23.836Z,100312.97
2023-01-05T15:34:57.686Z,100326.81
2023-01-05T15:37:32.483Z,100329.91
2023-01-05T15:40:04.287Z,100326.91
2023-01-05T15:42:39.903Z,100317.13
2023-01-05T15:45:21.432Z,100325.31
2023-01-05T15:47:52.260Z,100335.44
2023-01-05T15:50:23.450Z,100334.34
2023-01-05T15:52:56.871Z,100335.44
2023-01-05T15:55:26.433Z,100336.13
2023-01-05T15:57:56.933Z,100337.72
2023-01-05T16:00:27.439Z,100332.97
2023-01-05T16:02:57.080Z,100327.03
2023-01-05T16:05:26.941Z,100321.69
2023-01-05T16:07:58.659Z,100314.53
2023-01-05T16:10:31.056Z,100320.41
2023-01-05T16:13:04.654Z,100307.50
2023-01-05T16:15:35.892Z,100302.56
2023-01-05T16:18:08.177Z,100294.84
2023-01-05T16:20:38.272Z,100290.19
2023-01-05T16:23:12.847Z,100298.22
2023-01-05T16:25:43.695Z,100289.91
2023-01-05T16:28:19.293Z,100275.34
2023-01-05T16:30:49.005Z,100272.97
2023-01-05T16:33:40.431Z,100261.22
2023-01-05T16:36:12.229Z,100264.47
2023-01-05T16:38:42.005Z,100268.72
2023-01-05T16:41:16.325Z,100268.66
2023-01-05T16:43:48.126Z,100276.94
2023-01-05T16:46:29.533Z,100278.03
2023-01-05T16:49:01.994Z,100281.31
2023-01-05T16:51:42.080Z,100278.03
2023-01-05T16:54:21.913Z,100286.06
2023-01-05T16:56:58.368Z,100280.31
2023-01-05T16:59:51.570Z,100279.41
2023-01-05T17:02:32.242Z,100284.56
2023-01-05T17:05:01.829Z,100277.94
2023-01-05T17:07:30.130Z,100274.19
2023-01-05T17:09:58.283Z,100272.56
2023-01-05T17:12:26.629Z,100266.91
2023-01-05T17:15:00.997Z,100256.94
2023-01-05T17:17:29.273Z,100255.94
2023-01-05T17:19:57.402Z,100260.59
2023-01-05T17:22:26.968Z,100248.53
2023-01-05T17:24:55.275Z,100247.03
2023-01-05T17:27:23.427Z,100236.16
2023-01-05T17:29:52.838Z,100237.22
2023-01-05T17:32:23.604Z,100231.00
2023-01-05T17:34:51.668Z,100238.09
2023-01-05T17:37:19.907Z,100240.78
2023-01-05T17:39:49.394Z,100241.28
2023-01-05T17:42:35.293Z,100238.31
2023-01-05T17:45:03.630Z,100237.81
2023-01-05T17:47:31.777Z,100229.59
2023-01-05T17:49:59.854Z,100235.84
2023-01-05T17:52:28.193Z,100231.88
2023-01-05T17:54:57.687Z,100237.63
2023-01-05T17:57:25.821Z,100236.16
2023-01-05T17:59:53.907Z,100228.31
2023-01-05T18:02:22.223Z,100229.78
2023-01-05T18:04:51.419Z,100222.97
2023-01-05T18:07:20.528Z,100234.53
2023-01-05T18:09:48.957Z,100234.75
2023-01-05T18:12:18.556Z,100228.19
2023-01-05T18:14:46.632Z,100230.44
2023-01-05T18:17:15.884Z,100232.47
2023-01-05T18:19:44.341Z,100240.28
2023-01-05T18:22:12.719Z,100235.13
2023-01-05T18:24:41.766Z,100238.38
2023-01-05T18:27:10.397Z,100231.34
2023-01-05T18:29:42.939Z,100231.34
2023-01-05T18:32:11.777Z,100240.44
2023-01-05T18:34:39.833Z,100229.31
2023-01-05T18:37:15.682Z,100230.44
2023-01-05T18:39:49.190Z,100233.72
2023-01-05T18:42:17.922Z,100232.03
2023-01-05T18:44:47.420Z,100235.63
2023-01-05T18:47:17.956Z,100243.47
2023-01-05T18:49:46.271Z,100238.19
2023-01-05T18:52:14.394Z,100239.00
2023-01-05T18:54:43.077Z,100233.28
2023-01-05T18:57:11.366Z,100233.16
2023-01-05T18:59:39.620Z,100223.75
2023-01-05T19:02:15.330Z,100227.19
2023-01-05T19:04:43.896Z,100224.03
2023-01-05T19:07:13.408Z,100216.31
2023-01-05T19:09:41.672Z,100214.72
2023-01-05T19:12:10.078Z,100211.66
2023-01-05T19:14:38.497Z,100226.59
2023-01-05T19:17:06.641Z,100224.22
2023-01-05T19:19:36.188Z,100241.09
2023-01-05T19:22:06.405Z,100230.28
2023-01-05T19:24:35.486Z,100235.94
2023-01-05T19:27:03.592Z,100233.06
2023-01-05T19:29:31.659Z,100237.31
2023-01-05T19:32:00.052Z,100233.75
2023-01-05T19:34:28.201Z,100235.56
2023-01-05T19:36:57.651Z,100228.25
2023-01-05T19:39:28.282Z,100223.69
2023-01-05T19:41:56.361Z,100220.50
2023-01-05T19:44:24.549Z,100226.38
2023-01-05T19:46:54.305Z,100224.09
2023-01-05T19:49:25.292Z,100215.88
2023-01-05T19:51:54.668Z,100224.97
2023-01-05T19:54:25.404Z,100216.47
2023-01-05T19:56:55.116Z,100213.00
2023-01-05T19:59:26.572Z,100217.81
2023-01-05T20:01:56.385Z,100215.44
2023-01-05T20:04:24.576Z,100218.91
2023-01-05T20:06:52.846Z,100222.56
2023-01-05T20:09:21.356Z,100215.16
2023-01-05T20:11:54.844Z,100217.53
2023-01-05T20:14:30.964Z,100219.09
2023-01-05T20:17:01.412Z,100219.19
2023-01-05T20:19:32.165Z,100217.53
2023-01-05T20:22:03.232Z,100222.88
2023-01-05T20:24:33.532Z,100215.34
2023-01-05T20:27:05.181Z,100209.63
2023-01-05T20:29:33.756Z,100209.41
2023-01-05T20:32:04.916Z,100206.84
2023-01-05T20:34:35.660Z,100198.00
2023-01-05T20:37:04.645Z,100214.56
2023-01-05T20:39:33.260Z,100209.88
2023-01-05T20:42:05.019Z,100205.75
2023-01-05T20:44:35.845Z,100192.00
2023-01-05T20:47:05.820Z,100199.25
2023-01-05T20:49:36.977Z,100196.38
2023-01-05T20:52:05.897Z,100192.22
2023-01-05T20:54:34.328Z,100200.50
2023-01-05T20:57:03.825Z,100200.97
2023-01-05T20:59:34.771Z,100204.34
2023-01-05T21:02:05.712Z,100198.09
2023-01-05T21:04:35.993Z,100196.88
2023-01-05T21:07:04.177Z,100189.97
2023-01-05T21:09:33.640Z,100206.63
2023-01-05T21:12:03.120Z,100202.75
2023-01-05T21:14:31.250Z,100206.31
2023-01-05T21:16:59.407Z,100206.78
2023-01-05T21:19:29.660Z,100203.34
2023-01-05T21:21:59.215Z,100199.47
2023-01-05T21:24:28.091Z,100197.00
2023-01-05T21:26:56.639Z,100204.81
2023-01-05T21:29:27.058Z,100196.09
2023-01-05T21:31:56.412Z,100194.63
2023-01-05T21:34:26.265Z,100202.84
2023-01-05T21:36:54.411Z,100204.72
2023-01-05T21:39:24.770Z,100200.06
2023-01-05T21:42:11.884Z,100195.69
2023-01-05T21:44:41.751Z,100194.41
2023-01-05T21:47:10.563Z,100186.88
2023-01-05T21:49:38.777Z,100189.72
2023-01-05T21:52:24.669Z,100182.81
2023-01-05T21:55:10.239Z,100162.88
2023-01-05T21:57:38.436Z,100149.56
2023-01-05T22:00:09.948Z,100145.16
2023-01-05T22:02:38.110Z,100140.78
2023-01-05T22:05:07.227Z,100131.78
2023-01-05T22:07:35.362Z,100135.28
2023-01-05T22:10:03.612Z,100128.81
2023-01-05T22:12:31.855Z,100130.56
2023-01-05T22:14:59.959Z,100127.41
2023-01-05T22:17:29.562Z,100132.63
2023-01-05T22:19:57.936Z,100141.38
2023-01-05T22:22:26.039Z,100132.75
2023-01-05T22:24:54.317Z,100134.03
2023-01-05T22:27:22.601Z,100129.97
2023-01-05T22:29:50.708Z,100127.81
2023-01-05T22:32:18.988Z,100131.16
2023-01-05T22:34:48.591Z,100139.84
2023-01-05T22:37:17.422Z,100130.88
2023-01-05T22:39:45.543Z,100123.47
2023-01-05T22:42:13.746Z,100131.97
2023-01-05T22:44:42.094Z,100134.97
2023-01-05T22:47:10.289Z,100131.72
2023-01-05T22:49:38.389Z,100137.19
2023-01-05T22:52:07.900Z,100128.06
2023-01-05T22:54:36.170Z,100129.59
2023-01-05T22:57:04.257Z,100132.31
2023-01-05T22:59:32.369Z,100137.84
2023-01-05T23:02:00.582Z,100136.91
2023-01-05T23:04:28.778Z,100142.56
2023-01-05T23:06:56.868Z,100145.56
2023-01-05T23:09:26.683Z,100140.81
2023-01-05T23:11:54.811Z,100143.19
2023-01-05T23:14:23.050Z,100133.28
2023-01-05T23:16:51.229Z,100144.00
2023-01-05T23:19:19.615Z,100157.56
2023-01-05T23:21:48.702Z,100162.75
2023-01-05T23:24:16.899Z,100170.34
2023-01-05T23:26:46.799Z,100178.16
2023-01-05T23:29:14.965Z,100157.72
2023-01-05T23:31:43.121Z,100158.69
2023-01-05T23:34:11.268Z,100150.94
2023-01-05T23:36:40.456Z,100143.56
2023-01-05T23:39:08.592Z,100150.03
2023-01-05T23:41:36.738Z,100143.56
2023-01-05T23:44:08.083Z,100147.97
2023-01-05T23:46:37.324Z,100154.59
2023-01-05T23:49:05.499Z,100155.69
2023-01-05T23:51:33.707Z,100151.28
2023-01-05T23:54:01.893Z,100166.56
2023-01-05T23:56:32.170Z,100164.84
2023-01-05T23:59:08.028Z,100151.31
